Accueil
METAR-TAF:

METAR-TAF

Aéroports :

Aéroport de Newquay Cornouailles

Newquay Cornwall, Angleterre

latitude: 50-26N, longitude: 005-00W, altitude: 119 m

Observation

Le bulletin a été fait il y a 17 minutes, à 07:50 UTC
Vent 11 kt de nord
Température 11°C
Humidité 94%
Pression 1018 hPa
Visibilité 10 km ou plus
Nuages épars à une hauteur de 600 ft
Nuages épars à une hauteur de 2000 ft

METAR: EGHQ 220750Z 01011KT 9999 SCT006 SCT020 11/10 Q1018

Heure: 09:07 (08:07 UTC)

Prévision

Le bulletin a été fait il y a 1 heure et 36 minutes, à 06:31 UTC
Prévision valable du 22 à 06 UTC au 22 à 15 UTC
Vent 16 kt de nord
Visibilité 10 km ou plus
Quelques nuages à une hauteur de 4500 ft
Evoluant progressivement
du 22 à 06 UTC au 22 à 09 UTC
Vent 6 kt de nord

TAF: EGHQ 220631Z 2206/2215 36016KT 9999 FEW045 BECMG 2206/2209 36006KT

Observations et prévisions météorologiques de plus de 4000 aéroports (messages METAR et TAF).

Les stations disponibles sont représentées par des disques jaunes et rouges sur la carte.

Passer la souris dessus pour voir le nom de la station.

Cliquer dessus pour voir les observations et prévisions météorologiques.

Pour changer de carte: cliquez sur les boutons verts avec une croix noire pour zoomer, sur le bouton vert avec un tiret pour effectuer un zoom arrière, ou sur les flèches vertes pour les cartes adjacentes.


METAR-TAF: